Bucktown, Indiana
Current Conditions -  °F | °C
As of 11:35 AM on Sunday 21 Dec 2014 (Local Time) from KRSV Reporting Station
Clear Clear  
Wind Chill: 29°   Ceiling: Unl
Heat Index: 35°   Visibility: 7mi
Dew Point: 30°   Wind: 8mph
Humidity: 82%   Direction: 150°SSE
Pressure: 30.27"   Gusts: NA
Location:  38.9636°N, 87.3568°W
Report Text: KRSV 211635Z AUTO 15007KT 7SM CLR 02/M01 A3027 RMK AO2 T00171010
Loading
Personal Weather Stations






























Interactive Weather Map New forecast layout! Learn more

10-Day Weather Forecast

Advertisements
Track Severe Weather on mobile